Time;durP1;ratioP1;P1;durP2;ratioP2;P2;SDS_P1;SDS_P2;PMS_P1;PMS_P2;Temp;Humidity;BMP_temperature;BMP_pressure;BME280_temperature;BME280_humidity;BME280_pressure;Samples;Min_cycle;Max_cycle;Signal;HPM_P1;HPM_P2
2023/01/06 00:01:24;;;;;;;;;;;;;;;12.93;100.00;100738.03;5073061;28;19926;-58
2023/01/06 00:03:50;;;;;;;;;;;;;;;12.95;100.00;100737.03;5081529;28;20044;-58
2023/01/06 00:06:16;;;;;;;;;;;;;;;12.95;100.00;100734.38;5091128;28;19966;-57
2023/01/06 00:08:41;;;;;;;;;;;;;;;12.91;100.00;100734.53;5076355;28;19931;-58
2023/01/06 00:11:11;;;;;;;;;;;;;;;12.92;100.00;100737.16;5075996;28;19940;-59
2023/01/06 00:13:36;;;;;;;;;;;;;;;12.89;100.00;100731.91;5089527;28;19931;-58
2023/01/06 00:16:03;;;;;;;;;;;;;;;12.89;100.00;100731.03;5092942;28;19980;-58
2023/01/06 00:18:28;;;;;;;;;;;;;;;12.90;100.00;100724.75;5074815;28;20018;-58
2023/01/06 00:20:56;;;;;;;;;;;;;;;12.89;100.00;100726.56;5072479;28;20448;-57
2023/01/06 00:23:22;;;;;;;;;;;;;;;12.89;100.00;100731.03;5074578;28;19981;-58
2023/01/06 00:25:48;;;;;;;;;;;;;;;12.87;100.00;100725.72;5071828;28;19939;-58
2023/01/06 00:28:13;;;;;;;;;;;;;;;12.86;100.00;100724.00;5083726;28;19937;-58
2023/01/06 00:30:38;;;;;;;;;;;;;;;12.83;100.00;100724.06;5074467;28;19958;-57
2023/01/06 00:33:03;;;;;;;;;;;;;;;12.81;100.00;100717.03;5072221;28;19927;-58
2023/01/06 00:35:29;;;;;;;;;;;;;;;12.84;100.00;100717.81;5074330;28;19942;-58
2023/01/06 00:37:54;;;;;;;;;;;;;;;12.82;100.00;100714.31;5083589;28;20429;-58
2023/01/06 00:40:19;;;;;;;;;;;;;;;12.85;100.00;100716.03;5092308;28;19998;-58
2023/01/06 00:42:44;;;;;;;;;;;;;;;12.85;100.00;100718.69;5088929;28;19964;-57
2023/01/06 00:45:10;;;;;;;;;;;;;;;12.83;100.00;100716.06;5091804;28;19926;-58
2023/01/06 00:47:35;;;;;;;;;;;;;;;12.81;100.00;100712.56;5090177;28;19961;-57
2023/01/06 00:50:01;;;;;;;;;;;;;;;12.80;100.00;100716.16;5072414;28;19944;-58
2023/01/06 00:52:26;;;;;;;;;;;;;;;12.80;100.00;100716.16;5072087;28;19966;-58
2023/01/06 00:54:52;;;;;;;;;;;;;;;12.78;100.00;100712.66;5084871;28;19932;-58
2023/01/06 00:57:17;;;;;;;;;;;;;;;12.78;100.00;100711.78;5087386;28;20014;-58
2023/01/06 00:59:42;;;;;;;;;;;;;;;12.78;100.00;100712.66;5075257;28;19940;-58
2023/01/06 01:02:07;;;;;;;;;;;;;;;12.79;100.00;100706.41;5075444;28;19944;-58
2023/01/06 01:04:34;;;;;;;;;;;;;;;12.80;100.00;100705.47;5087577;28;20006;-57
2023/01/06 01:06:59;;;;;;;;;;;;;;;12.77;100.00;100702.91;5090364;28;20378;-58
2023/01/06 01:09:28;;;;;;;;;;;;;;;12.75;100.00;100704.72;5072037;28;20052;-58
2023/01/06 01:12:10;;;;;;;;;;;;;;;12.80;100.00;100713.47;5074054;28;19941;-58
2023/01/06 01:14:51;;;;;;;;;;;;;;;12.84;100.00;100712.47;5074663;28;19942;-57
2023/01/06 01:17:18;;;;;;;;;;;;;;;12.82;100.00;100716.97;5074047;28;19950;-58
2023/01/06 01:19:43;;;;;;;;;;;;;;;12.82;100.00;100708.97;5093128;28;20426;-58
2023/01/06 01:22:08;;;;;;;;;;;;;;;12.84;100.00;100716.94;5095955;28;19967;-58
2023/01/06 01:24:34;;;;;;;;;;;;;;;12.83;100.00;100715.19;5096176;28;19935;-58
2023/01/06 01:26:59;;;;;;;;;;;;;;;12.85;100.00;100708.88;5094212;28;19994;-58
2023/01/06 01:29:25;;;;;;;;;;;;;;;12.83;100.00;100705.38;5076134;28;19944;-58
2023/01/06 01:31:50;;;;;;;;;;;;;;;12.81;100.00;100711.69;5075499;28;19939;-58
2023/01/06 01:34:16;;;;;;;;;;;;;;;12.78;100.00;100711.78;5075603;28;20026;-58
2023/01/06 01:36:42;;;;;;;;;;;;;;;12.74;100.00;100711.00;5077154;28;19937;-57
2023/01/06 01:39:08;;;;;;;;;;;;;;;12.75;100.00;100715.41;5078683;28;19942;-58
2023/01/06 01:41:33;;;;;;;;;;;;;;;12.74;100.00;100710.13;5075155;28;20366;-58
2023/01/06 01:44:00;;;;;;;;;;;;;;;12.74;100.00;100710.13;5077822;28;19967;-58
2023/01/06 01:46:31;;;;;;;;;;;;;;;12.71;100.00;100716.44;5075476;28;19944;-58
2023/01/06 01:48:59;;;;;;;;;;;;;;;12.69;100.00;100707.59;5077637;28;19957;-58
2023/01/06 01:51:28;;;;;;;;;;;;;;;12.69;100.00;100709.38;5075262;28;19949;-58
2023/01/06 01:53:56;;;;;;;;;;;;;;;12.66;100.00;100717.50;5074971;28;20015;-57
2023/01/06 01:56:23;;;;;;;;;;;;;;;12.65;100.00;100719.28;5075205;28;19939;-58
2023/01/06 01:58:56;;;;;;;;;;;;;;;12.61;100.00;100717.63;5075984;28;22182;-58
2023/01/06 02:01:22;;;;;;;;;;;;;;;12.65;100.00;100719.28;5078143;28;20413;-58
2023/01/06 02:03:47;;;;;;;;;;;;;;;12.67;100.00;100727.22;5094428;28;20011;-58
2023/01/06 02:06:15;;;;;;;;;;;;;;;12.68;100.00;100721.88;5078379;28;19946;-58
2023/01/06 02:09:03;;;;;;;;;;;;;;;12.70;100.00;100717.34;5090852;28;20075;-57
2023/01/06 02:11:29;;;;;;;;;;;;;;;12.69;100.00;100710.28;5094410;28;19949;-57
2023/01/06 02:13:58;;;;;;;;;;;;;;;12.71;100.00;100710.22;5090548;28;20045;-57
2023/01/06 02:16:47;;;;;;;;;;;;;;;12.67;100.00;100714.78;5076004;28;19960;-57
2023/01/06 02:19:27;;;;;;;;;;;;;;;12.74;100.00;100718.13;5084351;28;19942;-57
2023/01/06 02:22:08;;;;;;;;;;;;;;;12.79;100.00;100718.88;5094030;28;19939;-58
2023/01/06 02:24:52;;;;;;;;;;;;;;;12.73;100.00;100714.59;5078614;28;19970;-57
2023/01/06 02:27:36;;;;;;;;;;;;;;;12.72;100.00;100717.28;5074145;28;19958;-57
2023/01/06 02:30:10;;;;;;;;;;;;;;;12.69;100.00;100718.28;5073844;28;20292;-57
2023/01/06 02:32:52;;;;;;;;;;;;;;;12.70;100.00;100720.00;5075843;28;20022;-57
2023/01/06 02:35:30;;;;;;;;;;;;;;;12.67;100.00;100720.09;5074495;28;20505;-57
2023/01/06 02:38:20;;;;;;;;;;;;;;;12.62;100.00;100722.03;5079704;28;19990;-57
2023/01/06 02:40:45;;;;;;;;;;;;;;;12.60;100.00;100713.19;5094163;28;19980;-57
2023/01/06 02:43:13;;;;;;;;;;;;;;;12.62;100.00;100719.38;5093374;28;19986;-58
2023/01/06 02:45:45;;;;;;;;;;;;;;;12.59;100.00;100711.47;5076900;28;19942;-58
2023/01/06 02:48:27;;;;;;;;;;;;;;;12.62;100.00;100711.38;5079948;28;19944;-59
2023/01/06 02:51:19;;;;;;;;;;;;;;;12.66;100.00;100713.03;5093395;28;20343;-58
2023/01/06 02:53:50;;;;;;;;;;;;;;;12.61;100.00;100714.97;5045509;28;19961;-59
2023/01/06 02:56:17;;;;;;;;;;;;;;;12.58;100.00;100708.84;5073964;28;20081;-59
2023/01/06 02:58:48;;;;;;;;;;;;;;;12.51;100.00;100708.16;5074332;28;20072;-58
2023/01/06 03:01:21;;;;;;;;;;;;;;;12.49;100.00;100707.31;5096210;28;19953;-58
2023/01/06 03:03:47;;;;;;;;;;;;;;;12.46;100.00;100709.19;5093711;28;19953;-58
2023/01/06 03:06:14;;;;;;;;;;;;;;;12.42;100.00;100719.06;5094059;28;19968;-59
2023/01/06 03:08:47;;;;;;;;;;;;;;;12.40;100.00;100706.72;5079412;28;19940;-58
2023/01/06 03:11:12;;;;;;;;;;;;;;;12.40;100.00;100707.59;5073665;28;19942;-58
2023/01/06 03:13:41;;;;;;;;;;;;;;;12.36;100.00;100715.72;5076047;28;20347;-58
2023/01/06 03:16:07;;;;;;;;;;;;;;;12.38;100.00;100712.09;5073422;28;20394;-58
2023/01/06 03:18:33;;;;;;;;;;;;;;;12.42;100.00;100707.56;5073157;28;19932;-59
2023/01/06 03:21:00;;;;;;;;;;;;;;;12.42;100.00;100703.06;5073456;28;19950;-58
2023/01/06 03:23:25;;;;;;;;;;;;;;;12.44;100.00;100713.69;5075601;28;20424;-59
2023/01/06 03:25:50;;;;;;;;;;;;;;;12.40;100.00;100709.38;5094595;28;19946;-58
2023/01/06 03:28:16;;;;;;;;;;;;;;;12.41;100.00;100701.34;5092804;28;19953;-58
2023/01/06 03:31:07;;;;;;;;;;;;;;;12.38;100.00;100709.44;5092723;28;20031;-58
2023/01/06 03:33:35;;;;;;;;;;;;;;;12.33;100.00;100714.03;5060331;28;19945;-59
2023/01/06 03:36:11;;;;;;;;;;;;;;;12.31;100.00;100704.28;5092935;28;20348;-59
2023/01/06 03:38:36;;;;;;;;;;;;;;;12.27;100.00;100703.53;5081879;28;19933;-58
2023/01/06 03:41:11;;;;;;;;;;;;;;;12.31;100.00;100707.84;5070823;28;20028;-58
2023/01/06 03:43:36;;;;;;;;;;;;;;;12.27;100.00;100708.88;5075123;28;19955;-58
2023/01/06 03:46:18;;;;;;;;;;;;;;;12.27;100.00;100706.19;5072926;28;19940;-58
2023/01/06 03:48:50;;;;;;;;;;;;;;;12.25;100.00;100705.38;5072952;28;20370;-59
2023/01/06 03:51:33;;;;;;;;;;;;;;;12.21;100.00;100708.16;5083904;28;19948;-58
2023/01/06 03:54:08;;;;;;;;;;;;;;;12.24;100.00;100702.75;5092846;28;20001;-58
2023/01/06 03:56:37;;;;;;;;;;;;;;;12.20;100.00;100701.94;5081905;28;19981;-58
2023/01/06 03:59:04;;;;;;;;;;;;;;;12.17;100.00;100704.72;5072676;28;19929;-58
2023/01/06 04:01:30;;;;;;;;;;;;;;;12.16;100.00;100704.75;5073060;28;19935;-58
2023/01/06 04:03:56;;;;;;;;;;;;;;;12.16;100.00;100702.94;5083101;28;20300;-59
2023/01/06 04:06:21;;;;;;;;;;;;;;;12.17;100.00;100699.38;5092868;28;19934;-58
2023/01/06 04:08:47;;;;;;;;;;;;;;;12.16;100.00;100699.41;5099144;28;19933;-58
2023/01/06 04:12:37;;;;;;;;;;;;;;;12.15;100.00;100705.66;5113204;28;20579;-58
2023/01/06 04:13:57;;;;;;;;;;;;;;;12.08;100.00;100696.06;5100319;28;19934;-58
2023/01/06 04:16:23;;;;;;;;;;;;;;;12.09;100.00;100696.06;5071668;28;19926;-59
2023/01/06 04:18:48;;;;;;;;;;;;;;;12.12;100.00;100697.75;5070799;28;19934;-58
2023/01/06 04:21:13;;;;;;;;;;;;;;;12.11;100.00;100690.69;5085340;28;20287;-58
2023/01/06 04:23:38;;;;;;;;;;;;;;;12.09;100.00;100692.50;5091951;28;19952;-58
2023/01/06 04:26:04;;;;;;;;;;;;;;;12.10;100.00;100686.25;5091852;28;19927;-58
2023/01/06 04:28:29;;;;;;;;;;;;;;;12.08;100.00;100683.63;5088827;28;20064;-59
2023/01/06 04:30:58;;;;;;;;;;;;;;;12.18;100.00;100682.44;5088846;28;19992;-58
2023/01/06 04:33:24;;;;;;;;;;;;;;;12.20;100.00;100679.72;5091299;28;19966;-58
2023/01/06 04:35:49;;;;;;;;;;;;;;;12.20;100.00;100685.94;5079287;28;20594;-59
2023/01/06 04:38:14;;;;;;;;;;;;;;;12.22;100.00;100681.44;5082708;28;19930;-59
2023/01/06 04:40:41;;;;;;;;;;;;;;;12.14;100.00;100686.09;5087253;28;19936;-58
2023/01/06 04:43:06;;;;;;;;;;;;;;;12.11;100.00;100680.84;5092062;28;20434;-58
2023/01/06 04:45:32;;;;;;;;;;;;;;;12.10;100.00;100678.25;5092199;28;19928;-58
2023/01/06 04:47:57;;;;;;;;;;;;;;;12.11;100.00;100680.84;5089218;28;19938;-58
2023/01/06 04:50:23;;;;;;;;;;;;;;;12.10;100.00;100673.78;5094572;28;20389;-59
2023/01/06 04:52:48;;;;;;;;;;;;;;;12.14;100.00;100678.09;5091751;28;20055;-59
2023/01/06 04:55:13;;;;;;;;;;;;;;;12.14;100.00;100669.25;5091885;28;19930;-58
2023/01/06 04:57:38;;;;;;;;;;;;;;;12.14;100.00;100669.25;5074548;28;19933;-59
2023/01/06 05:00:04;;;;;;;;;;;;;;;12.16;100.00;100670.94;5071868;28;20303;-59
2023/01/06 05:02:29;;;;;;;;;;;;;;;12.13;100.00;100673.69;5080195;28;19970;-58
2023/01/06 05:04:55;;;;;;;;;;;;;;;12.12;100.00;100660.41;5091979;28;19949;-58
2023/01/06 05:07:20;;;;;;;;;;;;;;;12.08;100.00;100664.06;5087065;28;20027;-59
2023/01/06 05:09:45;;;;;;;;;;;;;;;12.09;100.00;100664.06;5073911;28;19946;-58
2023/01/06 05:12:10;;;;;;;;;;;;;;;12.05;100.00;100665.03;5071900;28;19929;-59
2023/01/06 05:14:36;;;;;;;;;;;;;;;12.05;100.00;100656.16;5080705;28;19939;-58
2023/01/06 05:17:01;;;;;;;;;;;;;;;12.05;100.00;100659.72;5091463;28;19928;-58
2023/01/06 05:19:27;;;;;;;;;;;;;;;12.04;100.00;100667.75;5092516;28;19929;-59
2023/01/06 05:21:52;;;;;;;;;;;;;;;12.06;100.00;100666.78;5073180;28;19957;-58
2023/01/06 05:24:17;;;;;;;;;;;;;;;12.08;100.00;100659.63;5071432;28;20320;-58
2023/01/06 05:26:42;;;;;;;;;;;;;;;12.11;100.00;100661.34;5073634;28;19934;-58
2023/01/06 05:29:11;;;;;;;;;;;;;;;12.10;100.00;100663.13;5071660;28;19934;-58
2023/01/06 05:31:36;;;;;;;;;;;;;;;12.08;100.00;100664.94;5073324;28;19929;-58
2023/01/06 05:34:02;;;;;;;;;;;;;;;12.11;100.00;100664.84;5071096;28;19955;-58
2023/01/06 05:36:27;;;;;;;;;;;;;;;12.08;100.00;100670.28;5071667;28;20031;-58
2023/01/06 05:38:53;;;;;;;;;;;;;;;12.07;100.00;100668.56;5076587;28;19930;-58
2023/01/06 05:41:18;;;;;;;;;;;;;;;12.02;100.00;100669.59;5071780;28;19936;-58
2023/01/06 05:43:43;;;;;;;;;;;;;;;11.99;100.00;100672.34;5073470;28;20412;-58
2023/01/06 05:46:09;;;;;;;;;;;;;;;11.97;100.00;100674.16;5071182;28;19934;-58
2023/01/06 05:48:35;;;;;;;;;;;;;;;11.93;100.00;100676.03;5071489;28;19926;-59
2023/01/06 05:51:04;;;;;;;;;;;;;;;11.89;100.00;100679.72;5082606;28;20022;-59
2023/01/06 05:53:31;;;;;;;;;;;;;;;11.88;100.00;100688.63;5091428;28;20082;-58
2023/01/06 05:56:00;;;;;;;;;;;;;;;11.89;100.00;100691.25;5086651;28;19933;-58
2023/01/06 05:58:25;;;;;;;;;;;;;;;11.82;100.00;100686.13;5071298;28;19968;-59
2023/01/06 06:00:50;;;;;;;;;;;;;;;11.85;100.00;100684.25;5073268;28;20628;-58
2023/01/06 06:03:15;;;;;;;;;;;;;;;11.86;100.00;100685.16;5075172;28;19943;-59
2023/01/06 06:05:41;;;;;;;;;;;;;;;11.83;100.00;100698.53;5093991;28;19939;-58
2023/01/06 06:08:06;;;;;;;;;;;;;;;11.81;100.00;100701.25;5091796;28;19941;-58
2023/01/06 06:10:31;;;;;;;;;;;;;;;11.85;100.00;100700.25;5094594;28;19928;-58
2023/01/06 06:12:56;;;;;;;;;;;;;;;11.80;100.00;100711.94;5095114;28;20804;-58
2023/01/06 06:15:22;;;;;;;;;;;;;;;11.79;100.00;100708.41;5090724;28;19941;-58
2023/01/06 06:17:47;;;;;;;;;;;;;;;11.80;100.00;100714.59;5096335;28;20010;-58
2023/01/06 06:20:12;;;;;;;;;;;;;;;11.82;100.00;100726.13;5093914;28;19933;-58
2023/01/06 06:22:37;;;;;;;;;;;;;;;11.79;100.00;100726.19;5092981;28;20029;-58
2023/01/06 06:25:03;;;;;;;;;;;;;;;11.80;100.00;100717.28;5076668;28;19958;-58
2023/01/06 06:27:28;;;;;;;;;;;;;;;11.78;100.00;100719.09;5074462;28;19943;-58
2023/01/06 06:29:53;;;;;;;;;;;;;;;11.76;100.00;100728.94;5073704;28;19926;-58
2023/01/06 06:32:19;;;;;;;;;;;;;;;11.77;100.00;100730.69;5076707;28;19930;-58
2023/01/06 06:34:44;;;;;;;;;;;;;;;11.76;100.00;100731.63;5074315;28;19978;-58
2023/01/06 06:37:09;;;;;;;;;;;;;;;11.78;100.00;100735.97;5076300;28;19940;-59
2023/01/06 06:39:34;;;;;;;;;;;;;;;11.79;100.00;100736.84;5091313;28;20037;-58
2023/01/06 06:42:00;;;;;;;;;;;;;;;11.74;100.00;100733.44;5094514;28;19943;-58
2023/01/06 06:44:25;;;;;;;;;;;;;;;11.74;100.00;100741.44;5085165;28;19951;-58
2023/01/06 06:46:50;;;;;;;;;;;;;;;11.68;100.00;100745.13;5093096;28;20377;-59
2023/01/06 06:49:15;;;;;;;;;;;;;;;11.70;100.00;100747.75;5092740;28;20028;-58
2023/01/06 06:51:41;;;;;;;;;;;;;;;11.69;100.00;100754.88;5076298;28;19934;-58
2023/01/06 06:54:06;;;;;;;;;;;;;;;11.69;100.00;100754.00;5075810;28;20328;-58
2023/01/06 06:56:31;;;;;;;;;;;;;;;11.73;100.00;100742.31;5084475;28;19983;-58
2023/01/06 06:58:56;;;;;;;;;;;;;;;11.74;100.00;100746.75;5073881;28;19991;-59
2023/01/06 07:01:22;;;;;;;;;;;;;;;11.76;100.00;100737.78;5073984;28;20322;-59
2023/01/06 07:03:47;;;;;;;;;;;;;;;11.72;100.00;100740.59;5081971;28;19950;-59
2023/01/06 07:06:15;;;;;;;;;;;;;;;11.73;100.00;100742.31;5089304;28;19936;-58
2023/01/06 07:08:44;;;;;;;;;;;;;;;11.75;100.00;100743.16;5093961;28;19934;-58
2023/01/06 07:11:09;;;;;;;;;;;;;;;11.74;100.00;100741.44;5093864;28;20038;-58
2023/01/06 07:13:34;;;;;;;;;;;;;;;11.73;100.00;100737.00;5091199;28;20027;-58
2023/01/06 07:15:59;;;;;;;;;;;;;;;11.72;100.00;100744.13;5074960;28;19936;-58
2023/01/06 07:18:25;;;;;;;;;;;;;;;11.71;100.00;100750.38;5073559;28;19925;-58
2023/01/06 07:20:52;;;;;;;;;;;;;;;11.74;100.00;100760.09;5075753;28;20029;-58
2023/01/06 07:23:17;;;;;;;;;;;;;;;11.72;100.00;100762.78;5073170;28;19948;-58
2023/01/06 07:25:43;;;;;;;;;;;;;;;11.75;100.00;100768.03;5073828;28;19941;-58
2023/01/06 07:28:08;;;;;;;;;;;;;;;11.77;100.00;100773.34;5075910;28;19942;-58
2023/01/06 07:30:34;;;;;;;;;;;;;;;11.77;100.00;100768.00;5072575;28;19939;-59
2023/01/06 07:32:59;;;;;;;;;;;;;;;11.78;100.00;100772.41;5073179;28;19928;-58
2023/01/06 07:35:25;;;;;;;;;;;;;;;11.77;100.00;100765.34;5077190;28;19943;-58
2023/01/06 07:37:50;;;;;;;;;;;;;;;11.79;100.00;100771.50;5090949;28;19934;-58
2023/01/06 07:40:16;;;;;;;;;;;;;;;11.79;100.00;100768.84;5090725;28;20019;-58
2023/01/06 07:42:42;;;;;;;;;;;;;;;11.77;100.00;100776.88;5074761;28;19977;-59
2023/01/06 07:45:07;;;;;;;;;;;;;;;11.87;100.00;100773.06;5072890;28;20012;-58
2023/01/06 07:47:33;;;;;;;;;;;;;;;11.82;100.00;100774.09;5080747;28;20388;-58
2023/01/06 07:49:58;;;;;;;;;;;;;;;11.84;100.00;100774.94;5093065;28;19997;-58
2023/01/06 07:52:23;;;;;;;;;;;;;;;11.83;100.00;100781.16;5090810;28;19926;-59
2023/01/06 07:54:48;;;;;;;;;;;;;;;11.85;100.00;100779.34;5074720;28;20026;-58
2023/01/06 07:57:14;;;;;;;;;;;;;;;11.83;100.00;100776.72;5072304;28;19926;-59
2023/01/06 07:59:39;;;;;;;;;;;;;;;11.79;100.00;100780.34;5086478;28;20403;-59
2023/01/06 08:02:05;;;;;;;;;;;;;;;11.81;100.00;100780.34;5089063;28;19930;-58
2023/01/06 08:04:33;;;;;;;;;;;;;;;11.81;100.00;100786.53;5086641;28;19957;-58
2023/01/06 08:06:58;;;;;;;;;;;;;;;11.85;100.00;100782.88;5090795;28;19930;-58
2023/01/06 08:09:23;;;;;;;;;;;;;;;11.85;100.00;100785.56;5087172;28;19998;-58
2023/01/06 08:11:48;;;;;;;;;;;;;;;11.85;100.00;100785.56;5092640;28;20368;-58
2023/01/06 08:14:14;;;;;;;;;;;;;;;11.86;100.00;100789.09;5092616;28;19932;-59
2023/01/06 08:16:39;;;;;;;;;;;;;;;11.93;100.00;100797.81;5090145;28;19936;-58
2023/01/06 08:19:05;;;;;;;;;;;;;;;11.97;100.00;100797.69;5073955;28;19940;-58
2023/01/06 08:21:30;;;;;;;;;;;;;;;12.03;100.00;100789.53;5072370;28;19930;-58
2023/01/06 08:23:56;;;;;;;;;;;;;;;12.08;100.00;100786.72;5074218;28;19951;-58
2023/01/06 08:26:21;;;;;;;;;;;;;;;12.13;100.00;100801.69;5094025;28;19982;-58
2023/01/06 08:28:46;;;;;;;;;;;;;;;12.19;100.00;100800.69;5090925;28;20383;-58
2023/01/06 08:31:16;;;;;;;;;;;;;;;12.27;100.00;100804.91;5091947;28;19931;-58
2023/01/06 08:33:42;;;;;;;;;;;;;;;12.40;100.00;100817.00;5074620;28;20488;-58
2023/01/06 08:36:08;;;;;;;;;;;;;;;12.50;100.00;100804.25;5071852;28;19929;-58
2023/01/06 08:38:34;;;;;;;;;;;;;;;12.52;100.00;100805.94;5077419;28;20357;-58
2023/01/06 08:41:00;;;;;;;;;;;;;;;12.47;100.00;100813.22;5071510;28;19928;-59
2023/01/06 08:43:26;;;;;;;;;;;;;;;12.46;100.00;100816.81;5072156;28;20435;-59
2023/01/06 08:45:52;;;;;;;;;;;;;;;12.42;100.00;100816.94;5071980;28;19956;-58
2023/01/06 08:48:18;;;;;;;;;;;;;;;12.47;100.00;100818.53;5085424;28;19930;-58
2023/01/06 08:50:43;;;;;;;;;;;;;;;12.49;100.00;100819.38;5092169;28;19936;-58
2023/01/06 08:53:09;;;;;;;;;;;;;;;12.56;100.00;100818.31;5089001;28;19958;-58
2023/01/06 08:55:37;;;;;;;;;;;;;;;12.61;100.00;100824.41;5092146;28;20026;-58
2023/01/06 08:58:02;;;;;;;;;;;;;;;12.67;100.00;100820.66;5092023;28;19924;-58
2023/01/06 09:00:28;;;;;;;;;;;;;;;12.73;100.00;100818.72;5089761;28;19996;-58
2023/01/06 09:02:53;;;;;;;;;;;;;;;12.75;100.00;100808.84;5074292;28;19970;-58
2023/01/06 09:05:18;;;;;;;;;;;;;;;12.84;100.00;100813.94;5091926;28;19948;-59
2023/01/06 09:07:43;;;;;;;;;;;;;;;12.88;100.00;100807.56;5080795;28;19962;-59
2023/01/06 09:10:10;;;;;;;;;;;;;;;12.95;100.00;100811.81;5070982;28;19941;-59
2023/01/06 09:12:36;;;;;;;;;;;;;;;12.99;100.00;100813.50;5071844;28;19937;-58
2023/01/06 09:15:02;;;;;;;;;;;;;;;13.06;100.00;100819.56;5071794;28;19931;-58
2023/01/06 09:17:27;;;;;;;;;;;;;;;13.06;100.00;100828.41;5073675;28;20671;-58
2023/01/06 09:19:52;;;;;;;;;;;;;;;13.15;100.00;100830.84;5071767;28;19926;-58
2023/01/06 09:22:17;;;;;;;;;;;;;;;13.33;100.00;100828.53;5071786;28;20020;-58
2023/01/06 09:24:43;;;;;;;;;;;;;;;13.53;100.00;100832.31;5071632;28;19956;-58
2023/01/06 09:27:08;;;;;;;;;;;;;;;13.55;100.00;100834.94;5073620;28;20612;-58
2023/01/06 09:29:33;;;;;;;;;;;;;;;13.67;100.00;100837.22;5071397;28;19939;-59
2023/01/06 09:31:58;;;;;;;;;;;;;;;13.59;100.00;100837.47;5076629;28;19941;-58
2023/01/06 09:34:24;;;;;;;;;;;;;;;13.54;100.00;100833.19;5089948;28;20558;-58
2023/01/06 09:36:49;;;;;;;;;;;;;;;13.58;100.00;100829.50;5071726;28;19933;-58
2023/01/06 09:39:14;;;;;;;;;;;;;;;13.53;100.00;100832.31;5093760;28;19931;-58
2023/01/06 09:41:42;;;;;;;;;;;;;;;13.62;100.00;100834.72;5095576;28;20456;-58
2023/01/06 09:44:26;;;;;;;;;;;;;;;13.61;100.00;100829.38;5088635;28;19950;-58
2023/01/06 09:46:52;;;;;;;;;;;;;;;13.59;100.00;100828.59;5075191;28;19932;-58
2023/01/06 09:49:56;;;;;;;;;;;;;;;13.58;100.00;100838.41;5075234;28;20414;-58
2023/01/06 09:52:24;;;;;;;;;;;;;;;13.52;100.00;100819.00;4993106;28;19938;-58
2023/01/06 09:54:56;;;;;;;;;;;;;;;13.56;100.00;100815.31;4993267;28;19922;-58
2023/01/06 09:57:31;;;;;;;;;;;;;;;13.47;100.00;100811.13;5038347;28;19942;-58
2023/01/06 10:00:02;;;;;;;;;;;;;;;13.48;99.77;100802.19;5074773;28;19926;-58
2023/01/06 10:02:40;;;;;;;;;;;;;;;13.59;99.43;100804.53;5084007;28;19960;-58
2023/01/06 10:05:17;;;;;;;;;;;;;;;13.68;97.89;100798.88;5093796;28;20056;-58
2023/01/06 10:07:49;;;;;;;;;;;;;;;13.67;96.95;100797.13;5086011;28;19953;-59
2023/01/06 10:10:17;;;;;;;;;;;;;;;13.66;96.11;100806.06;5083968;28;19987;-58
2023/01/06 10:13:01;;;;;;;;;;;;;;;13.59;96.61;100799.19;5093857;28;20303;-58
2023/01/06 10:15:29;;;;;;;;;;;;;;;13.55;97.16;100792.16;5095069;28;19923;-58
2023/01/06 10:18:14;;;;;;;;;;;;;;;13.53;97.90;100794.00;5094188;28;19933;-58
2023/01/06 10:20:46;;;;;;;;;;;;;;;14.10;99.06;100792.09;5074298;28;19937;-58
2023/01/06 10:23:29;;;;;;;;;;;;;;;15.05;94.40;100786.78;5074418;28;19952;-59
2023/01/06 10:26:01;;;;;;;;;;;;;;;15.29;88.48;100798.34;5091596;28;19965;-58
2023/01/06 10:28:34;;;;;;;;;;;;;;;15.17;87.96;100788.13;5084971;28;20041;-58
2023/01/06 10:31:05;;;;;;;;;;;;;;;15.09;87.58;100783.03;5074414;28;19969;-58
2023/01/06 10:33:32;;;;;;;;;;;;;;;14.99;88.92;100788.84;5059020;28;19936;-58
2023/01/06 10:35:58;;;;;;;;;;;;;;;14.92;88.97;100790.00;5094609;28;19990;-58
2023/01/06 10:38:29;;;;;;;;;;;;;;;14.84;89.94;100792.09;5079468;28;19934;-58
2023/01/06 10:40:55;;;;;;;;;;;;;;;14.85;89.81;100793.81;5074105;28;20256;-58
2023/01/06 10:43:22;;;;;;;;;;;;;;;14.82;89.97;100791.28;5080122;28;19985;-58
2023/01/06 10:45:48;;;;;;;;;;;;;;;14.67;89.41;100782.00;5094832;28;19975;-59
2023/01/06 10:48:15;;;;;;;;;;;;;;;14.58;91.17;100782.31;5075609;28;19963;-57
2023/01/06 10:50:41;;;;;;;;;;;;;;;14.30;91.21;100776.22;5073549;28;19925;-58
2023/01/06 10:53:06;;;;;;;;;;;;;;;14.24;91.38;100784.44;5082048;28;20378;-58
2023/01/06 10:55:50;;;;;;;;;;;;;;;14.24;91.96;100777.31;5094255;28;19928;-59
2023/01/06 10:58:38;;;;;;;;;;;;;;;14.03;92.31;100780.72;5089610;28;19934;-58
2023/01/06 11:01:08;;;;;;;;;;;;;;;13.99;92.35;100781.75;5085643;28;20023;-58
2023/01/06 11:03:34;;;;;;;;;;;;;;;13.96;92.72;100784.53;5093587;28;19954;-58
2023/01/06 11:06:02;;;;;;;;;;;;;;;14.01;93.56;100787.03;5093632;28;19996;-58
2023/01/06 11:08:27;;;;;;;;;;;;;;;14.01;93.99;100784.38;5078568;28;19940;-59
2023/01/06 11:10:53;;;;;;;;;;;;;;;14.10;93.43;100787.59;5073822;28;20027;-58
2023/01/06 11:13:32;;;;;;;;;;;;;;;14.14;94.17;100788.38;5075919;28;20479;-59
2023/01/06 11:16:00;;;;;;;;;;;;;;;14.04;93.07;100776.22;5073451;28;19977;-58
2023/01/06 11:18:27;;;;;;;;;;;;;;;14.00;94.02;100780.81;5073504;28;20303;-58
2023/01/06 11:21:05;;;;;;;;;;;;;;;13.92;93.95;100782.88;5073525;28;19930;-58
2023/01/06 11:23:30;;;;;;;;;;;;;;;13.79;93.00;100786.88;5086840;28;19954;-58
2023/01/06 11:26:11;;;;;;;;;;;;;;;13.65;94.93;100793.63;5092978;28;19923;-58
2023/01/06 11:28:37;;;;;;;;;;;;;;;13.49;95.48;100792.38;5092445;28;19932;-58
2023/01/06 11:31:05;;;;;;;;;;;;;;;13.51;96.18;100790.53;5093128;28;19933;-58
2023/01/06 11:33:32;;;;;;;;;;;;;;;13.47;96.59;100794.22;5072070;28;20083;-58
2023/01/06 11:36:04;;;;;;;;;;;;;;;13.47;95.90;100783.53;5071864;28;19999;-58
2023/01/06 11:38:30;;;;;;;;;;;;;;;13.48;96.76;100778.13;5086619;28;19935;-59
2023/01/06 11:40:55;;;;;;;;;;;;;;;13.64;96.65;100775.84;5085429;28;19951;-58
2023/01/06 11:43:24;;;;;;;;;;;;;;;13.72;96.60;100774.66;5074531;28;19963;-58
2023/01/06 11:45:55;;;;;;;;;;;;;;;13.75;96.46;100768.34;5073130;28;19990;-58
2023/01/06 11:48:24;;;;;;;;;;;;;;;13.91;95.91;100769.56;5072897;28;20019;-58
2023/01/06 11:50:54;;;;;;;;;;;;;;;13.99;95.80;100764.81;5074926;28;20021;-59
2023/01/06 11:53:20;;;;;;;;;;;;;;;13.85;93.73;100756.41;5092823;28;20434;-59
2023/01/06 11:56:05;;;;;;;;;;;;;;;14.09;93.98;100756.44;5091910;28;19932;-58
2023/01/06 11:58:40;;;;;;;;;;;;;;;14.18;93.22;100747.22;5078051;28;19935;-57
2023/01/06 12:01:24;;;;;;;;;;;;;;;14.25;92.89;100746.97;5053786;28;19937;-57
2023/01/06 12:03:50;;;;;;;;;;;;;;;14.36;92.45;100741.22;5080812;28;19965;-58
2023/01/06 12:06:29;;;;;;;;;;;;;;;14.29;90.48;100734.34;5092934;28;19931;-58
2023/01/06 12:08:59;;;;;;;;;;;;;;;14.21;90.74;100731.03;5074748;28;20637;-57
2023/01/06 12:11:43;;;;;;;;;;;;;;;14.28;91.06;100727.25;5071685;28;19936;-58
2023/01/06 12:14:12;;;;;;;;;;;;;;;14.23;90.96;100724.69;5071384;28;19928;-58
2023/01/06 12:16:41;;;;;;;;;;;;;;;14.34;91.74;100729.69;5075104;28;20399;-58
2023/01/06 12:19:14;;;;;;;;;;;;;;;14.43;91.36;100727.56;5078924;28;19983;-58
2023/01/06 12:21:40;;;;;;;;;;;;;;;14.55;92.58;100728.91;5084446;28;19940;-58
2023/01/06 12:24:06;;;;;;;;;;;;;;;14.61;90.92;100730.50;5091780;28;19953;-58
2023/01/06 12:26:34;;;;;;;;;;;;;;;14.54;91.66;100727.16;5092849;28;20014;-58
2023/01/06 12:29:00;;;;;;;;;;;;;;;14.58;90.95;100719.91;5091680;28;20430;-57
2023/01/06 12:31:33;;;;;;;;;;;;;;;14.62;90.57;100719.72;5074194;28;19939;-58
2023/01/06 12:33:58;;;;;;;;;;;;;;;14.65;91.50;100724.06;5073173;28;19937;-57